sensor_id;sensor_type;location;lat;lon;timestamp;P1;durP1;ratioP1;P2;durP2;ratioP2
83556;SDS011;73523;55.740;13.276;2024-02-04T00:00:11;2.83;;;1.10;;
83556;SDS011;73523;55.740;13.276;2024-02-04T00:02:38;2.85;;;1.00;;
83556;SDS011;73523;55.740;13.276;2024-02-04T00:05:03;3.53;;;1.00;;
83556;SDS011;73523;55.740;13.276;2024-02-04T00:07:29;3.67;;;1.10;;
83556;SDS011;73523;55.740;13.276;2024-02-04T00:09:54;3.27;;;0.97;;
83556;SDS011;73523;55.740;13.276;2024-02-04T00:12:20;4.90;;;1.20;;
83556;SDS011;73523;55.740;13.276;2024-02-04T00:14:46;4.40;;;1.27;;
83556;SDS011;73523;55.740;13.276;2024-02-04T00:17:13;3.35;;;0.98;;
83556;SDS011;73523;55.740;13.276;2024-02-04T00:19:40;3.90;;;1.20;;
83556;SDS011;73523;55.740;13.276;2024-02-04T00:22:05;2.90;;;0.80;;
83556;SDS011;73523;55.740;13.276;2024-02-04T00:24:30;2.87;;;0.90;;
83556;SDS011;73523;55.740;13.276;2024-02-04T00:26:56;3.50;;;1.13;;
83556;SDS011;73523;55.740;13.276;2024-02-04T00:29:21;3.73;;;0.90;;
83556;SDS011;73523;55.740;13.276;2024-02-04T00:31:46;3.17;;;0.93;;
83556;SDS011;73523;55.740;13.276;2024-02-04T00:34:11;2.67;;;0.90;;
83556;SDS011;73523;55.740;13.276;2024-02-04T00:36:39;3.15;;;1.00;;
83556;SDS011;73523;55.740;13.276;2024-02-04T00:39:04;2.47;;;0.73;;
83556;SDS011;73523;55.740;13.276;2024-02-04T00:41:30;3.00;;;1.20;;
83556;SDS011;73523;55.740;13.276;2024-02-04T00:43:55;4.50;;;1.20;;
83556;SDS011;73523;55.740;13.276;2024-02-04T00:46:20;3.15;;;0.90;;
83556;SDS011;73523;55.740;13.276;2024-02-04T00:48:46;3.80;;;0.90;;
83556;SDS011;73523;55.740;13.276;2024-02-04T00:51:11;4.03;;;1.13;;
83556;SDS011;73523;55.740;13.276;2024-02-04T00:53:38;4.80;;;1.08;;
83556;SDS011;73523;55.740;13.276;2024-02-04T00:56:03;3.70;;;0.93;;
83556;SDS011;73523;55.740;13.276;2024-02-04T00:58:29;4.73;;;1.20;;
83556;SDS011;73523;55.740;13.276;2024-02-04T01:00:55;3.17;;;1.00;;
83556;SDS011;73523;55.740;13.276;2024-02-04T01:03:20;3.97;;;1.10;;
83556;SDS011;73523;55.740;13.276;2024-02-04T01:05:45;3.35;;;1.20;;
83556;SDS011;73523;55.740;13.276;2024-02-04T01:08:11;2.37;;;0.80;;
83556;SDS011;73523;55.740;13.276;2024-02-04T01:10:36;3.30;;;1.00;;
83556;SDS011;73523;55.740;13.276;2024-02-04T01:13:02;3.22;;;1.02;;
83556;SDS011;73523;55.740;13.276;2024-02-04T01:15:28;3.33;;;0.88;;
83556;SDS011;73523;55.740;13.276;2024-02-04T01:17:54;2.77;;;1.00;;
83556;SDS011;73523;55.740;13.276;2024-02-04T01:20:19;2.13;;;0.83;;
83556;SDS011;73523;55.740;13.276;2024-02-04T01:22:44;2.72;;;1.00;;
83556;SDS011;73523;55.740;13.276;2024-02-04T01:25:10;3.37;;;1.00;;
83556;SDS011;73523;55.740;13.276;2024-02-04T01:27:35;2.63;;;1.00;;
83556;SDS011;73523;55.740;13.276;2024-02-04T01:30:00;3.53;;;1.10;;
83556;SDS011;73523;55.740;13.276;2024-02-04T01:32:26;3.17;;;1.00;;
83556;SDS011;73523;55.740;13.276;2024-02-04T01:34:51;2.45;;;0.90;;
83556;SDS011;73523;55.740;13.276;2024-02-04T01:37:17;3.30;;;1.10;;
83556;SDS011;73523;55.740;13.276;2024-02-04T01:39:42;3.65;;;1.10;;
83556;SDS011;73523;55.740;13.276;2024-02-04T01:42:07;2.83;;;0.90;;
83556;SDS011;73523;55.740;13.276;2024-02-04T01:44:33;2.10;;;0.80;;
83556;SDS011;73523;55.740;13.276;2024-02-04T01:46:58;2.70;;;1.10;;
83556;SDS011;73523;55.740;13.276;2024-02-04T01:49:24;2.67;;;0.87;;
83556;SDS011;73523;55.740;13.276;2024-02-04T01:51:50;3.63;;;1.27;;
83556;SDS011;73523;55.740;13.276;2024-02-04T01:54:17;3.63;;;1.20;;
83556;SDS011;73523;55.740;13.276;2024-02-04T01:56:43;3.57;;;1.13;;
83556;SDS011;73523;55.740;13.276;2024-02-04T01:59:11;2.97;;;1.13;;
83556;SDS011;73523;55.740;13.276;2024-02-04T02:01:38;3.72;;;1.20;;
83556;SDS011;73523;55.740;13.276;2024-02-04T02:04:03;4.90;;;1.30;;
83556;SDS011;73523;55.740;13.276;2024-02-04T02:06:30;3.85;;;1.27;;
83556;SDS011;73523;55.740;13.276;2024-02-04T02:08:56;3.10;;;1.00;;
83556;SDS011;73523;55.740;13.276;2024-02-04T02:11:35;3.38;;;1.10;;
83556;SDS011;73523;55.740;13.276;2024-02-04T02:14:05;3.97;;;1.25;;
83556;SDS011;73523;55.740;13.276;2024-02-04T02:16:38;3.00;;;0.98;;
83556;SDS011;73523;55.740;13.276;2024-02-04T02:24:57;3.70;;;1.33;;
83556;SDS011;73523;55.740;13.276;2024-02-04T02:27:24;3.10;;;1.10;;
83556;SDS011;73523;55.740;13.276;2024-02-04T02:29:49;4.20;;;1.00;;
83556;SDS011;73523;55.740;13.276;2024-02-04T02:32:14;4.10;;;1.33;;
83556;SDS011;73523;55.740;13.276;2024-02-04T02:34:40;3.53;;;1.13;;
83556;SDS011;73523;55.740;13.276;2024-02-04T02:42:23;4.35;;;1.35;;
83556;SDS011;73523;55.740;13.276;2024-02-04T02:44:49;3.33;;;1.23;;
83556;SDS011;73523;55.740;13.276;2024-02-04T02:47:15;2.53;;;0.80;;
83556;SDS011;73523;55.740;13.276;2024-02-04T02:49:40;4.63;;;1.17;;
83556;SDS011;73523;55.740;13.276;2024-02-04T02:52:06;3.37;;;0.90;;
83556;SDS011;73523;55.740;13.276;2024-02-04T02:54:31;5.27;;;1.27;;
83556;SDS011;73523;55.740;13.276;2024-02-04T02:56:56;3.78;;;1.27;;
83556;SDS011;73523;55.740;13.276;2024-02-04T02:59:22;4.43;;;1.30;;
83556;SDS011;73523;55.740;13.276;2024-02-04T03:01:47;3.20;;;1.03;;
83556;SDS011;73523;55.740;13.276;2024-02-04T03:04:12;3.83;;;1.20;;
83556;SDS011;73523;55.740;13.276;2024-02-04T03:06:38;3.93;;;1.30;;
83556;SDS011;73523;55.740;13.276;2024-02-04T03:09:03;3.23;;;1.10;;
83556;SDS011;73523;55.740;13.276;2024-02-04T03:11:28;3.90;;;1.20;;
83556;SDS011;73523;55.740;13.276;2024-02-04T03:13:54;3.40;;;1.20;;
83556;SDS011;73523;55.740;13.276;2024-02-04T03:16:19;3.72;;;1.40;;
83556;SDS011;73523;55.740;13.276;2024-02-04T03:18:45;3.60;;;1.20;;
83556;SDS011;73523;55.740;13.276;2024-02-04T03:21:11;3.10;;;1.20;;
83556;SDS011;73523;55.740;13.276;2024-02-04T03:23:37;3.53;;;1.30;;
83556;SDS011;73523;55.740;13.276;2024-02-04T03:26:03;2.87;;;1.00;;
83556;SDS011;73523;55.740;13.276;2024-02-04T03:28:28;3.87;;;1.30;;
83556;SDS011;73523;55.740;13.276;2024-02-04T03:30:53;3.73;;;1.23;;
83556;SDS011;73523;55.740;13.276;2024-02-04T03:33:19;3.00;;;1.17;;
83556;SDS011;73523;55.740;13.276;2024-02-04T03:35:44;3.50;;;1.27;;
83556;SDS011;73523;55.740;13.276;2024-02-04T03:38:09;2.73;;;1.10;;
83556;SDS011;73523;55.740;13.276;2024-02-04T03:40:35;3.60;;;1.00;;
83556;SDS011;73523;55.740;13.276;2024-02-04T03:43:00;4.07;;;1.40;;
83556;SDS011;73523;55.740;13.276;2024-02-04T03:45:26;2.93;;;1.10;;
83556;SDS011;73523;55.740;13.276;2024-02-04T03:47:52;3.23;;;1.20;;
83556;SDS011;73523;55.740;13.276;2024-02-04T03:50:17;4.03;;;1.40;;
83556;SDS011;73523;55.740;13.276;2024-02-04T03:52:42;3.03;;;1.13;;
83556;SDS011;73523;55.740;13.276;2024-02-04T03:55:08;4.17;;;1.30;;
83556;SDS011;73523;55.740;13.276;2024-02-04T03:57:33;4.53;;;1.13;;
83556;SDS011;73523;55.740;13.276;2024-02-04T03:59:59;3.67;;;1.30;;
83556;SDS011;73523;55.740;13.276;2024-02-04T04:02:24;3.60;;;1.20;;
83556;SDS011;73523;55.740;13.276;2024-02-04T04:04:49;4.47;;;1.30;;
83556;SDS011;73523;55.740;13.276;2024-02-04T04:07:14;3.13;;;1.20;;
83556;SDS011;73523;55.740;13.276;2024-02-04T04:09:40;3.00;;;1.03;;
83556;SDS011;73523;55.740;13.276;2024-02-04T04:12:05;3.87;;;1.10;;
83556;SDS011;73523;55.740;13.276;2024-02-04T04:14:31;3.63;;;1.33;;
83556;SDS011;73523;55.740;13.276;2024-02-04T04:16:56;3.13;;;1.00;;
83556;SDS011;73523;55.740;13.276;2024-02-04T04:19:21;3.23;;;1.00;;
83556;SDS011;73523;55.740;13.276;2024-02-04T04:21:46;3.47;;;1.07;;
83556;SDS011;73523;55.740;13.276;2024-02-04T04:24:12;3.77;;;1.10;;
83556;SDS011;73523;55.740;13.276;2024-02-04T04:26:40;3.83;;;1.30;;
83556;SDS011;73523;55.740;13.276;2024-02-04T04:29:06;2.97;;;1.13;;
83556;SDS011;73523;55.740;13.276;2024-02-04T04:31:31;4.43;;;1.25;;
83556;SDS011;73523;55.740;13.276;2024-02-04T04:33:56;3.20;;;1.00;;
83556;SDS011;73523;55.740;13.276;2024-02-04T04:36:21;3.43;;;1.07;;
83556;SDS011;73523;55.740;13.276;2024-02-04T04:38:47;3.03;;;1.07;;
83556;SDS011;73523;55.740;13.276;2024-02-04T04:41:15;3.58;;;1.17;;
83556;SDS011;73523;55.740;13.276;2024-02-04T04:43:40;2.60;;;1.00;;
83556;SDS011;73523;55.740;13.276;2024-02-04T04:46:05;3.10;;;1.00;;
83556;SDS011;73523;55.740;13.276;2024-02-04T04:48:31;2.70;;;1.00;;
83556;SDS011;73523;55.740;13.276;2024-02-04T04:50:56;3.90;;;1.20;;
83556;SDS011;73523;55.740;13.276;2024-02-04T04:53:21;4.50;;;1.33;;
83556;SDS011;73523;55.740;13.276;2024-02-04T04:55:46;3.03;;;0.90;;
83556;SDS011;73523;55.740;13.276;2024-02-04T04:58:12;4.43;;;1.20;;
83556;SDS011;73523;55.740;13.276;2024-02-04T05:00:37;4.63;;;1.33;;
83556;SDS011;73523;55.740;13.276;2024-02-04T05:03:02;3.80;;;1.03;;
83556;SDS011;73523;55.740;13.276;2024-02-04T05:05:29;2.38;;;0.82;;
83556;SDS011;73523;55.740;13.276;2024-02-04T05:07:54;2.93;;;1.10;;
83556;SDS011;73523;55.740;13.276;2024-02-04T05:10:19;2.73;;;1.00;;
83556;SDS011;73523;55.740;13.276;2024-02-04T05:12:45;3.33;;;1.10;;
83556;SDS011;73523;55.740;13.276;2024-02-04T05:15:10;3.43;;;1.10;;
83556;SDS011;73523;55.740;13.276;2024-02-04T05:17:35;3.17;;;1.00;;
83556;SDS011;73523;55.740;13.276;2024-02-04T05:20:01;3.97;;;1.20;;
83556;SDS011;73523;55.740;13.276;2024-02-04T05:22:28;3.45;;;1.00;;
83556;SDS011;73523;55.740;13.276;2024-02-04T05:24:53;3.27;;;1.03;;
83556;SDS011;73523;55.740;13.276;2024-02-04T05:27:18;3.47;;;1.30;;
83556;SDS011;73523;55.740;13.276;2024-02-04T05:29:44;2.37;;;0.80;;
83556;SDS011;73523;55.740;13.276;2024-02-04T05:32:10;2.85;;;1.02;;
83556;SDS011;73523;55.740;13.276;2024-02-04T05:34:36;2.50;;;0.98;;
83556;SDS011;73523;55.740;13.276;2024-02-04T05:37:02;3.70;;;1.20;;
83556;SDS011;73523;55.740;13.276;2024-02-04T05:39:28;3.10;;;1.10;;
83556;SDS011;73523;55.740;13.276;2024-02-04T05:41:53;3.15;;;1.05;;
83556;SDS011;73523;55.740;13.276;2024-02-04T05:44:18;3.47;;;1.27;;
83556;SDS011;73523;55.740;13.276;2024-02-04T05:46:44;3.20;;;1.00;;
83556;SDS011;73523;55.740;13.276;2024-02-04T05:49:09;3.50;;;1.07;;
83556;SDS011;73523;55.740;13.276;2024-02-04T05:51:40;3.30;;;1.10;;
83556;SDS011;73523;55.740;13.276;2024-02-04T05:54:06;3.17;;;1.13;;
83556;SDS011;73523;55.740;13.276;2024-02-04T05:56:33;2.20;;;0.82;;
83556;SDS011;73523;55.740;13.276;2024-02-04T05:58:58;2.97;;;1.10;;
83556;SDS011;73523;55.740;13.276;2024-02-04T06:01:24;3.40;;;1.20;;
83556;SDS011;73523;55.740;13.276;2024-02-04T06:03:49;3.17;;;1.00;;
83556;SDS011;73523;55.740;13.276;2024-02-04T06:06:15;3.30;;;1.10;;
83556;SDS011;73523;55.740;13.276;2024-02-04T06:08:41;2.97;;;1.10;;
83556;SDS011;73523;55.740;13.276;2024-02-04T06:11:11;3.60;;;1.17;;
83556;SDS011;73523;55.740;13.276;2024-02-04T06:13:40;4.38;;;0.90;;
83556;SDS011;73523;55.740;13.276;2024-02-04T06:16:06;4.20;;;1.20;;
83556;SDS011;73523;55.740;13.276;2024-02-04T06:18:32;3.57;;;1.40;;
83556;SDS011;73523;55.740;13.276;2024-02-04T06:20:57;3.65;;;1.25;;
83556;SDS011;73523;55.740;13.276;2024-02-04T06:23:23;2.93;;;1.00;;
83556;SDS011;73523;55.740;13.276;2024-02-04T06:25:48;4.10;;;1.30;;
83556;SDS011;73523;55.740;13.276;2024-02-04T06:28:13;3.50;;;1.07;;
83556;SDS011;73523;55.740;13.276;2024-02-04T06:30:39;3.27;;;1.20;;
83556;SDS011;73523;55.740;13.276;2024-02-04T06:33:04;2.58;;;1.15;;
83556;SDS011;73523;55.740;13.276;2024-02-04T06:35:30;3.47;;;1.23;;
83556;SDS011;73523;55.740;13.276;2024-02-04T06:37:55;3.85;;;1.27;;
83556;SDS011;73523;55.740;13.276;2024-02-04T06:40:20;2.97;;;0.93;;
83556;SDS011;73523;55.740;13.276;2024-02-04T06:42:46;3.10;;;1.10;;
83556;SDS011;73523;55.740;13.276;2024-02-04T06:45:11;2.33;;;0.73;;
83556;SDS011;73523;55.740;13.276;2024-02-04T06:47:36;3.30;;;1.10;;
83556;SDS011;73523;55.740;13.276;2024-02-04T06:50:02;4.22;;;1.23;;
83556;SDS011;73523;55.740;13.276;2024-02-04T06:52:30;4.07;;;1.20;;
83556;SDS011;73523;55.740;13.276;2024-02-04T06:54:56;3.70;;;1.20;;
83556;SDS011;73523;55.740;13.276;2024-02-04T06:57:21;2.40;;;1.00;;
83556;SDS011;73523;55.740;13.276;2024-02-04T06:59:46;2.93;;;1.10;;
83556;SDS011;73523;55.740;13.276;2024-02-04T07:02:11;4.20;;;1.13;;
83556;SDS011;73523;55.740;13.276;2024-02-04T07:04:37;3.27;;;1.10;;
83556;SDS011;73523;55.740;13.276;2024-02-04T07:07:02;3.93;;;1.20;;
83556;SDS011;73523;55.740;13.276;2024-02-04T07:09:28;3.25;;;1.17;;
83556;SDS011;73523;55.740;13.276;2024-02-04T07:11:53;2.40;;;0.93;;
83556;SDS011;73523;55.740;13.276;2024-02-04T07:14:18;2.10;;;0.80;;
83556;SDS011;73523;55.740;13.276;2024-02-04T07:16:44;4.03;;;1.30;;
83556;SDS011;73523;55.740;13.276;2024-02-04T07:19:09;3.20;;;1.10;;
83556;SDS011;73523;55.740;13.276;2024-02-04T07:21:34;2.90;;;1.02;;
83556;SDS011;73523;55.740;13.276;2024-02-04T07:24:00;2.40;;;1.00;;
83556;SDS011;73523;55.740;13.276;2024-02-04T07:26:25;3.53;;;1.20;;
83556;SDS011;73523;55.740;13.276;2024-02-04T07:28:50;3.53;;;1.00;;
83556;SDS011;73523;55.740;13.276;2024-02-04T07:31:17;3.40;;;0.97;;
83556;SDS011;73523;55.740;13.276;2024-02-04T07:33:43;5.05;;;1.10;;
83556;SDS011;73523;55.740;13.276;2024-02-04T07:36:09;4.00;;;1.10;;
83556;SDS011;73523;55.740;13.276;2024-02-04T07:38:35;4.72;;;1.00;;
83556;SDS011;73523;55.740;13.276;2024-02-04T07:41:00;3.57;;;1.00;;
83556;SDS011;73523;55.740;13.276;2024-02-04T07:43:26;4.93;;;0.90;;
83556;SDS011;73523;55.740;13.276;2024-02-04T07:45:51;4.10;;;1.10;;
83556;SDS011;73523;55.740;13.276;2024-02-04T07:48:17;4.33;;;1.20;;
83556;SDS011;73523;55.740;13.276;2024-02-04T07:50:42;4.45;;;1.00;;
83556;SDS011;73523;55.740;13.276;2024-02-04T07:53:08;2.83;;;1.20;;
83556;SDS011;73523;55.740;13.276;2024-02-04T07:55:33;4.70;;;1.13;;
83556;SDS011;73523;55.740;13.276;2024-02-04T07:57:59;4.47;;;1.20;;
83556;SDS011;73523;55.740;13.276;2024-02-04T08:00:24;3.43;;;1.17;;
83556;SDS011;73523;55.740;13.276;2024-02-04T08:02:49;2.70;;;1.13;;
83556;SDS011;73523;55.740;13.276;2024-02-04T08:05:15;4.65;;;1.23;;
83556;SDS011;73523;55.740;13.276;2024-02-04T08:07:40;3.43;;;1.30;;
83556;SDS011;73523;55.740;13.276;2024-02-04T08:10:06;4.47;;;1.30;;
83556;SDS011;73523;55.740;13.276;2024-02-04T08:12:32;4.15;;;1.20;;
83556;SDS011;73523;55.740;13.276;2024-02-04T08:14:57;3.40;;;1.00;;
83556;SDS011;73523;55.740;13.276;2024-02-04T08:17:22;4.57;;;1.20;;
83556;SDS011;73523;55.740;13.276;2024-02-04T08:19:48;2.67;;;0.90;;
83556;SDS011;73523;55.740;13.276;2024-02-04T08:22:13;4.87;;;1.33;;
83556;SDS011;73523;55.740;13.276;2024-02-04T08:24:39;5.93;;;1.00;;
83556;SDS011;73523;55.740;13.276;2024-02-04T08:27:04;3.53;;;1.20;;
83556;SDS011;73523;55.740;13.276;2024-02-04T08:29:30;3.05;;;0.70;;
83556;SDS011;73523;55.740;13.276;2024-02-04T08:31:56;3.63;;;1.00;;
83556;SDS011;73523;55.740;13.276;2024-02-04T08:34:21;3.37;;;1.00;;
83556;SDS011;73523;55.740;13.276;2024-02-04T08:36:49;15.95;;;1.65;;
83556;SDS011;73523;55.740;13.276;2024-02-04T08:39:15;4.15;;;1.02;;
83556;SDS011;73523;55.740;13.276;2024-02-04T08:41:41;2.72;;;0.80;;
83556;SDS011;73523;55.740;13.276;2024-02-04T08:44:06;4.13;;;1.00;;
83556;SDS011;73523;55.740;13.276;2024-02-04T08:46:32;2.97;;;0.90;;
83556;SDS011;73523;55.740;13.276;2024-02-04T08:48:57;3.33;;;0.95;;
83556;SDS011;73523;55.740;13.276;2024-02-04T08:51:22;2.63;;;1.10;;
83556;SDS011;73523;55.740;13.276;2024-02-04T08:53:48;6.03;;;1.20;;
83556;SDS011;73523;55.740;13.276;2024-02-04T08:56:13;3.53;;;0.98;;
83556;SDS011;73523;55.740;13.276;2024-02-04T08:58:38;6.20;;;1.10;;
83556;SDS011;73523;55.740;13.276;2024-02-04T09:01:04;6.57;;;1.23;;
83556;SDS011;73523;55.740;13.276;2024-02-04T09:03:30;6.45;;;1.30;;
83556;SDS011;73523;55.740;13.276;2024-02-04T09:05:56;3.50;;;1.10;;
83556;SDS011;73523;55.740;13.276;2024-02-04T09:08:22;7.30;;;1.15;;
83556;SDS011;73523;55.740;13.276;2024-02-04T09:10:47;14.43;;;1.50;;
83556;SDS011;73523;55.740;13.276;2024-02-04T09:13:13;32.90;;;2.10;;
83556;SDS011;73523;55.740;13.276;2024-02-04T09:15:38;37.63;;;2.50;;
83556;SDS011;73523;55.740;13.276;2024-02-04T09:18:04;37.43;;;2.90;;
83556;SDS011;73523;55.740;13.276;2024-02-04T09:20:29;40.17;;;2.67;;
83556;SDS011;73523;55.740;13.276;2024-02-04T09:22:54;37.30;;;2.77;;
83556;SDS011;73523;55.740;13.276;2024-02-04T09:25:20;38.50;;;2.40;;
83556;SDS011;73523;55.740;13.276;2024-02-04T09:27:45;34.13;;;2.80;;
83556;SDS011;73523;55.740;13.276;2024-02-04T09:30:10;36.03;;;3.17;;
83556;SDS011;73523;55.740;13.276;2024-02-04T09:32:36;43.10;;;3.42;;
83556;SDS011;73523;55.740;13.276;2024-02-04T09:35:02;35.60;;;2.95;;
83556;SDS011;73523;55.740;13.276;2024-02-04T09:37:28;36.90;;;2.58;;
83556;SDS011;73523;55.740;13.276;2024-02-04T09:39:53;26.13;;;2.20;;
83556;SDS011;73523;55.740;13.276;2024-02-04T09:42:19;41.87;;;2.73;;
83556;SDS011;73523;55.740;13.276;2024-02-04T09:44:49;21.80;;;2.13;;
83556;SDS011;73523;55.740;13.276;2024-02-04T09:47:15;20.65;;;2.40;;
83556;SDS011;73523;55.740;13.276;2024-02-04T09:49:41;23.85;;;2.33;;
83556;SDS011;73523;55.740;13.276;2024-02-04T09:52:07;21.50;;;2.40;;
83556;SDS011;73523;55.740;13.276;2024-02-04T09:54:34;25.38;;;2.55;;
83556;SDS011;73523;55.740;13.276;2024-02-04T09:57:09;19.00;;;2.40;;
83556;SDS011;73523;55.740;13.276;2024-02-04T09:59:34;24.93;;;2.20;;
83556;SDS011;73523;55.740;13.276;2024-02-04T10:02:00;16.70;;;1.90;;
83556;SDS011;73523;55.740;13.276;2024-02-04T10:04:28;21.67;;;1.90;;
83556;SDS011;73523;55.740;13.276;2024-02-04T10:06:53;17.58;;;2.38;;
83556;SDS011;73523;55.740;13.276;2024-02-04T10:09:19;21.03;;;2.03;;
83556;SDS011;73523;55.740;13.276;2024-02-04T10:11:44;26.77;;;2.50;;
83556;SDS011;73523;55.740;13.276;2024-02-04T10:14:09;19.50;;;1.90;;
83556;SDS011;73523;55.740;13.276;2024-02-04T10:16:35;19.20;;;2.30;;
83556;SDS011;73523;55.740;13.276;2024-02-04T10:19:00;14.57;;;2.33;;
83556;SDS011;73523;55.740;13.276;2024-02-04T10:21:26;15.25;;;2.05;;
83556;SDS011;73523;55.740;13.276;2024-02-04T10:23:51;21.23;;;2.13;;
83556;SDS011;73523;55.740;13.276;2024-02-04T10:26:17;19.90;;;2.40;;
83556;SDS011;73523;55.740;13.276;2024-02-04T10:28:45;22.03;;;1.93;;
83556;SDS011;73523;55.740;13.276;2024-02-04T10:31:11;15.43;;;2.05;;
83556;SDS011;73523;55.740;13.276;2024-02-04T10:33:38;19.05;;;2.42;;
83556;SDS011;73523;55.740;13.276;2024-02-04T10:36:03;20.35;;;2.20;;
83556;SDS011;73523;55.740;13.276;2024-02-04T10:38:32;15.75;;;2.42;;
83556;SDS011;73523;55.740;13.276;2024-02-04T10:41:01;19.25;;;2.40;;
83556;SDS011;73523;55.740;13.276;2024-02-04T10:43:36;17.67;;;2.60;;
83556;SDS011;73523;55.740;13.276;2024-02-04T10:46:08;21.17;;;2.03;;
83556;SDS011;73523;55.740;13.276;2024-02-04T10:48:36;19.17;;;2.08;;
83556;SDS011;73523;55.740;13.276;2024-02-04T10:51:15;16.80;;;2.35;;
83556;SDS011;73523;55.740;13.276;2024-02-04T10:53:41;18.08;;;2.13;;
83556;SDS011;73523;55.740;13.276;2024-02-04T10:56:10;17.37;;;2.20;;
83556;SDS011;73523;55.740;13.276;2024-02-04T10:58:39;18.00;;;2.17;;
83556;SDS011;73523;55.740;13.276;2024-02-04T11:01:05;21.80;;;2.17;;
83556;SDS011;73523;55.740;13.276;2024-02-04T11:03:31;15.38;;;1.90;;
83556;SDS011;73523;55.740;13.276;2024-02-04T11:05:58;11.10;;;1.92;;
83556;SDS011;73523;55.740;13.276;2024-02-04T11:08:24;17.17;;;2.08;;
83556;SDS011;73523;55.740;13.276;2024-02-04T11:10:50;16.98;;;2.15;;
83556;SDS011;73523;55.740;13.276;2024-02-04T11:13:15;14.50;;;2.20;;
83556;SDS011;73523;55.740;13.276;2024-02-04T11:15:41;10.07;;;1.90;;
83556;SDS011;73523;55.740;13.276;2024-02-04T11:18:55;13.30;;;2.25;;
83556;SDS011;73523;55.740;13.276;2024-02-04T11:26:33;12.90;;;1.83;;
83556;SDS011;73523;55.740;13.276;2024-02-04T11:29:00;13.02;;;1.70;;
83556;SDS011;73523;55.740;13.276;2024-02-04T11:31:27;10.23;;;1.70;;
83556;SDS011;73523;55.740;13.276;2024-02-04T11:33:53;16.95;;;2.13;;
83556;SDS011;73523;55.740;13.276;2024-02-04T11:36:23;9.70;;;2.03;;
83556;SDS011;73523;55.740;13.276;2024-02-04T11:38:49;11.77;;;2.15;;
83556;SDS011;73523;55.740;13.276;2024-02-04T11:41:22;10.15;;;1.60;;
83556;SDS011;73523;55.740;13.276;2024-02-04T11:43:52;10.32;;;1.65;;
83556;SDS011;73523;55.740;13.276;2024-02-04T11:46:19;9.45;;;1.83;;
83556;SDS011;73523;55.740;13.276;2024-02-04T11:48:50;11.80;;;1.67;;
83556;SDS011;73523;55.740;13.276;2024-02-04T11:51:18;12.90;;;1.70;;
83556;SDS011;73523;55.740;13.276;2024-02-04T11:53:46;8.18;;;1.60;;
83556;SDS011;73523;55.740;13.276;2024-02-04T11:56:11;10.77;;;1.83;;
83556;SDS011;73523;55.740;13.276;2024-02-04T11:58:38;7.47;;;1.75;;
83556;SDS011;73523;55.740;13.276;2024-02-04T12:01:05;8.90;;;1.70;;
83556;SDS011;73523;55.740;13.276;2024-02-04T12:03:35;9.83;;;1.80;;
83556;SDS011;73523;55.740;13.276;2024-02-04T12:06:01;8.30;;;1.73;;
83556;SDS011;73523;55.740;13.276;2024-02-04T12:08:30;7.13;;;1.52;;
83556;SDS011;73523;55.740;13.276;2024-02-04T12:10:57;9.95;;;1.65;;
83556;SDS011;73523;55.740;13.276;2024-02-04T12:13:24;7.33;;;1.50;;
83556;SDS011;73523;55.740;13.276;2024-02-04T12:15:49;7.03;;;1.47;;
83556;SDS011;73523;55.740;13.276;2024-02-04T12:18:15;7.03;;;1.58;;
83556;SDS011;73523;55.740;13.276;2024-02-04T12:20:45;5.85;;;1.50;;
83556;SDS011;73523;55.740;13.276;2024-02-04T12:23:11;7.10;;;1.60;;
83556;SDS011;73523;55.740;13.276;2024-02-04T12:25:37;5.57;;;1.35;;
83556;SDS011;73523;55.740;13.276;2024-02-04T12:28:03;5.07;;;1.57;;
83556;SDS011;73523;55.740;13.276;2024-02-04T12:30:29;9.27;;;1.55;;
83556;SDS011;73523;55.740;13.276;2024-02-04T12:32:59;6.00;;;1.40;;
83556;SDS011;73523;55.740;13.276;2024-02-04T12:35:25;6.00;;;1.67;;
83556;SDS011;73523;55.740;13.276;2024-02-04T12:37:52;6.22;;;1.65;;
83556;SDS011;73523;55.740;13.276;2024-02-04T12:40:25;4.50;;;1.50;;
83556;SDS011;73523;55.740;13.276;2024-02-04T12:42:55;5.75;;;1.50;;
83556;SDS011;73523;55.740;13.276;2024-02-04T12:45:26;6.55;;;1.60;;
83556;SDS011;73523;55.740;13.276;2024-02-04T12:47:52;5.03;;;1.27;;
83556;SDS011;73523;55.740;13.276;2024-02-04T12:50:19;5.05;;;1.50;;
83556;SDS011;73523;55.740;13.276;2024-02-04T12:52:45;7.50;;;1.60;;
83556;SDS011;73523;55.740;13.276;2024-02-04T12:55:24;3.20;;;1.20;;
83556;SDS011;73523;55.740;13.276;2024-02-04T12:58:03;6.00;;;1.40;;
83556;SDS011;73523;55.740;13.276;2024-02-04T13:00:42;6.70;;;1.50;;
83556;SDS011;73523;55.740;13.276;2024-02-04T13:03:08;7.00;;;1.40;;
83556;SDS011;73523;55.740;13.276;2024-02-04T13:05:33;4.72;;;1.48;;
83556;SDS011;73523;55.740;13.276;2024-02-04T13:08:00;5.40;;;1.40;;
83556;SDS011;73523;55.740;13.276;2024-02-04T13:10:30;4.70;;;1.30;;
83556;SDS011;73523;55.740;13.276;2024-02-04T13:13:01;5.88;;;1.52;;
83556;SDS011;73523;55.740;13.276;2024-02-04T13:15:32;7.28;;;1.50;;
83556;SDS011;73523;55.740;13.276;2024-02-04T13:18:00;4.82;;;1.30;;
83556;SDS011;73523;55.740;13.276;2024-02-04T13:20:26;5.20;;;1.40;;
83556;SDS011;73523;55.740;13.276;2024-02-04T13:22:51;3.83;;;1.30;;
83556;SDS011;73523;55.740;13.276;2024-02-04T13:25:18;5.82;;;1.35;;
83556;SDS011;73523;55.740;13.276;2024-02-04T13:27:45;5.83;;;1.37;;
83556;SDS011;73523;55.740;13.276;2024-02-04T13:30:11;6.13;;;1.50;;
83556;SDS011;73523;55.740;13.276;2024-02-04T13:32:40;6.17;;;1.47;;
83556;SDS011;73523;55.740;13.276;2024-02-04T13:35:06;4.95;;;1.30;;
83556;SDS011;73523;55.740;13.276;2024-02-04T13:37:36;5.25;;;1.27;;
83556;SDS011;73523;55.740;13.276;2024-02-04T13:40:02;10.45;;;1.70;;
83556;SDS011;73523;55.740;13.276;2024-02-04T13:42:28;6.40;;;1.58;;
83556;SDS011;73523;55.740;13.276;2024-02-04T13:44:54;6.83;;;1.10;;
83556;SDS011;73523;55.740;13.276;2024-02-04T13:47:19;6.30;;;1.23;;
83556;SDS011;73523;55.740;13.276;2024-02-04T13:49:45;18.67;;;1.83;;
83556;SDS011;73523;55.740;13.276;2024-02-04T13:52:10;11.73;;;1.50;;
83556;SDS011;73523;55.740;13.276;2024-02-04T13:54:35;9.50;;;1.40;;
83556;SDS011;73523;55.740;13.276;2024-02-04T13:57:00;13.30;;;1.50;;
83556;SDS011;73523;55.740;13.276;2024-02-04T13:59:26;9.27;;;1.43;;
83556;SDS011;73523;55.740;13.276;2024-02-04T14:01:51;5.72;;;1.20;;
83556;SDS011;73523;55.740;13.276;2024-02-04T14:04:17;7.65;;;1.30;;
83556;SDS011;73523;55.740;13.276;2024-02-04T14:06:43;5.73;;;1.47;;
83556;SDS011;73523;55.740;13.276;2024-02-04T14:09:08;5.28;;;1.30;;
83556;SDS011;73523;55.740;13.276;2024-02-04T14:11:37;7.40;;;1.30;;
83556;SDS011;73523;55.740;13.276;2024-02-04T14:14:03;6.90;;;1.43;;
83556;SDS011;73523;55.740;13.276;2024-02-04T14:16:28;4.63;;;1.40;;
83556;SDS011;73523;55.740;13.276;2024-02-04T14:18:54;6.07;;;1.50;;
83556;SDS011;73523;55.740;13.276;2024-02-04T14:21:19;6.23;;;1.80;;
83556;SDS011;73523;55.740;13.276;2024-02-04T14:23:45;4.37;;;1.23;;
83556;SDS011;73523;55.740;13.276;2024-02-04T14:26:17;5.35;;;1.40;;
83556;SDS011;73523;55.740;13.276;2024-02-04T14:28:43;4.93;;;1.50;;
83556;SDS011;73523;55.740;13.276;2024-02-04T14:31:09;12.83;;;1.60;;
83556;SDS011;73523;55.740;13.276;2024-02-04T14:33:35;6.32;;;1.23;;
83556;SDS011;73523;55.740;13.276;2024-02-04T14:36:01;9.35;;;1.38;;
83556;SDS011;73523;55.740;13.276;2024-02-04T14:38:26;5.33;;;1.40;;
83556;SDS011;73523;55.740;13.276;2024-02-04T14:40:52;6.57;;;1.50;;